sensor_id;sensor_type;location;lat;lon;timestamp;temperature;humidity
34574;DHT22;20809;49.594;8.734;2022-10-16T00:00:34;15.50;99.90
34574;DHT22;20809;49.594;8.734;2022-10-16T00:03:35;15.50;99.90
34574;DHT22;20809;49.594;8.734;2022-10-16T00:06:36;15.40;99.90
34574;DHT22;20809;49.594;8.734;2022-10-16T00:09:37;15.40;99.90
34574;DHT22;20809;49.594;8.734;2022-10-16T00:12:37;15.40;99.90
34574;DHT22;20809;49.594;8.734;2022-10-16T00:15:38;15.40;99.90
34574;DHT22;20809;49.594;8.734;2022-10-16T00:18:40;15.40;99.90
34574;DHT22;20809;49.594;8.734;2022-10-16T00:21:40;15.40;99.90
34574;DHT22;20809;49.594;8.734;2022-10-16T00:24:41;15.40;99.90
34574;DHT22;20809;49.594;8.734;2022-10-16T00:27:42;15.40;99.90
34574;DHT22;20809;49.594;8.734;2022-10-16T00:30:42;15.40;99.90
34574;DHT22;20809;49.594;8.734;2022-10-16T00:33:44;15.40;99.90
34574;DHT22;20809;49.594;8.734;2022-10-16T00:36:44;15.40;99.90
34574;DHT22;20809;49.594;8.734;2022-10-16T00:39:45;15.40;99.90
34574;DHT22;20809;49.594;8.734;2022-10-16T00:42:46;15.40;99.90
34574;DHT22;20809;49.594;8.734;2022-10-16T00:45:46;15.40;99.90
34574;DHT22;20809;49.594;8.734;2022-10-16T00:49:04;15.50;99.90
34574;DHT22;20809;49.594;8.734;2022-10-16T00:52:06;15.50;99.90
34574;DHT22;20809;49.594;8.734;2022-10-16T00:59:25;15.50;99.90
34574;DHT22;20809;49.594;8.734;2022-10-16T01:02:26;15.50;99.90
34574;DHT22;20809;49.594;8.734;2022-10-16T01:05:49;15.50;99.90
34574;DHT22;20809;49.594;8.734;2022-10-16T01:09:30;15.50;99.90
34574;DHT22;20809;49.594;8.734;2022-10-16T01:16:00;15.50;99.90
34574;DHT22;20809;49.594;8.734;2022-10-16T01:19:14;15.50;99.90
34574;DHT22;20809;49.594;8.734;2022-10-16T01:22:17;15.50;99.90
34574;DHT22;20809;49.594;8.734;2022-10-16T01:28:54;15.50;99.90
34574;DHT22;20809;49.594;8.734;2022-10-16T01:32:00;15.50;99.90
34574;DHT22;20809;49.594;8.734;2022-10-16T01:35:18;15.50;99.90
34574;DHT22;20809;49.594;8.734;2022-10-16T01:38:30;15.50;99.90
34574;DHT22;20809;49.594;8.734;2022-10-16T01:41:38;15.50;99.90
34574;DHT22;20809;49.594;8.734;2022-10-16T01:44:41;15.50;99.90
34574;DHT22;20809;49.594;8.734;2022-10-16T01:47:43;15.50;99.90
34574;DHT22;20809;49.594;8.734;2022-10-16T01:50:52;15.60;99.90
34574;DHT22;20809;49.594;8.734;2022-10-16T01:53:56;15.60;99.90
34574;DHT22;20809;49.594;8.734;2022-10-16T01:56:59;15.60;99.90
34574;DHT22;20809;49.594;8.734;2022-10-16T02:00:04;15.60;99.90
34574;DHT22;20809;49.594;8.734;2022-10-16T02:03:07;15.60;99.90
34574;DHT22;20809;49.594;8.734;2022-10-16T02:06:09;15.60;99.90
34574;DHT22;20809;49.594;8.734;2022-10-16T02:09:10;15.60;99.90
34574;DHT22;20809;49.594;8.734;2022-10-16T02:12:29;15.60;99.90
34574;DHT22;20809;49.594;8.734;2022-10-16T02:15:31;15.60;99.90
34574;DHT22;20809;49.594;8.734;2022-10-16T02:18:32;15.50;99.90
34574;DHT22;20809;49.594;8.734;2022-10-16T02:21:43;15.50;99.90
34574;DHT22;20809;49.594;8.734;2022-10-16T02:31:03;15.50;99.90
34574;DHT22;20809;49.594;8.734;2022-10-16T02:34:06;15.50;99.90
34574;DHT22;20809;49.594;8.734;2022-10-16T02:37:07;15.50;99.90
34574;DHT22;20809;49.594;8.734;2022-10-16T02:40:09;15.40;99.90
34574;DHT22;20809;49.594;8.734;2022-10-16T02:43:10;15.40;99.90
34574;DHT22;20809;49.594;8.734;2022-10-16T02:46:11;15.50;99.90
34574;DHT22;20809;49.594;8.734;2022-10-16T02:49:12;15.50;99.90
34574;DHT22;20809;49.594;8.734;2022-10-16T02:52:13;15.50;99.90
34574;DHT22;20809;49.594;8.734;2022-10-16T02:55:13;15.50;99.90
34574;DHT22;20809;49.594;8.734;2022-10-16T02:58:14;15.50;99.90
34574;DHT22;20809;49.594;8.734;2022-10-16T03:01:15;15.50;99.90
34574;DHT22;20809;49.594;8.734;2022-10-16T03:04:17;15.60;99.90
34574;DHT22;20809;49.594;8.734;2022-10-16T03:07:17;15.60;99.90
34574;DHT22;20809;49.594;8.734;2022-10-16T03:10:18;15.60;99.90
34574;DHT22;20809;49.594;8.734;2022-10-16T03:13:19;15.60;99.90
34574;DHT22;20809;49.594;8.734;2022-10-16T03:16:20;15.60;99.90
34574;DHT22;20809;49.594;8.734;2022-10-16T03:19:21;15.60;99.90
34574;DHT22;20809;49.594;8.734;2022-10-16T03:22:22;15.70;99.90
34574;DHT22;20809;49.594;8.734;2022-10-16T03:25:22;15.60;99.90
34574;DHT22;20809;49.594;8.734;2022-10-16T03:28:23;15.60;99.90
34574;DHT22;20809;49.594;8.734;2022-10-16T03:31:24;15.60;99.90
34574;DHT22;20809;49.594;8.734;2022-10-16T03:34:24;15.60;99.90
34574;DHT22;20809;49.594;8.734;2022-10-16T03:37:26;15.60;99.90
34574;DHT22;20809;49.594;8.734;2022-10-16T03:40:26;15.60;99.90
34574;DHT22;20809;49.594;8.734;2022-10-16T03:43:27;15.50;99.90
34574;DHT22;20809;49.594;8.734;2022-10-16T03:46:28;15.60;99.90
34574;DHT22;20809;49.594;8.734;2022-10-16T03:49:29;15.50;99.90
34574;DHT22;20809;49.594;8.734;2022-10-16T03:52:30;15.40;99.90
34574;DHT22;20809;49.594;8.734;2022-10-16T03:55:32;15.40;99.90
34574;DHT22;20809;49.594;8.734;2022-10-16T03:58:33;15.40;99.90
34574;DHT22;20809;49.594;8.734;2022-10-16T04:01:33;15.50;99.90
34574;DHT22;20809;49.594;8.734;2022-10-16T04:04:34;15.40;99.90
34574;DHT22;20809;49.594;8.734;2022-10-16T04:07:35;15.40;99.90
34574;DHT22;20809;49.594;8.734;2022-10-16T04:10:35;15.40;99.90
34574;DHT22;20809;49.594;8.734;2022-10-16T04:13:36;15.50;99.90
34574;DHT22;20809;49.594;8.734;2022-10-16T04:16:37;15.50;99.90
34574;DHT22;20809;49.594;8.734;2022-10-16T04:19:38;15.50;99.90
34574;DHT22;20809;49.594;8.734;2022-10-16T04:22:38;15.40;99.90
34574;DHT22;20809;49.594;8.734;2022-10-16T04:25:39;15.40;99.90
34574;DHT22;20809;49.594;8.734;2022-10-16T04:28:40;15.50;99.90
34574;DHT22;20809;49.594;8.734;2022-10-16T04:31:40;15.50;99.90
34574;DHT22;20809;49.594;8.734;2022-10-16T04:34:41;15.50;99.90
34574;DHT22;20809;49.594;8.734;2022-10-16T04:37:42;15.50;99.90
34574;DHT22;20809;49.594;8.734;2022-10-16T04:40:42;15.60;99.90
34574;DHT22;20809;49.594;8.734;2022-10-16T04:43:43;15.60;99.90
34574;DHT22;20809;49.594;8.734;2022-10-16T04:46:44;15.50;99.90
34574;DHT22;20809;49.594;8.734;2022-10-16T04:49:44;15.40;99.90
34574;DHT22;20809;49.594;8.734;2022-10-16T04:52:45;15.40;99.90
34574;DHT22;20809;49.594;8.734;2022-10-16T04:55:46;15.50;99.90
34574;DHT22;20809;49.594;8.734;2022-10-16T04:58:46;15.40;99.90
34574;DHT22;20809;49.594;8.734;2022-10-16T05:01:47;15.40;99.90
34574;DHT22;20809;49.594;8.734;2022-10-16T05:04:48;15.30;99.90
34574;DHT22;20809;49.594;8.734;2022-10-16T05:07:49;15.30;99.90
34574;DHT22;20809;49.594;8.734;2022-10-16T05:10:50;15.30;99.90
34574;DHT22;20809;49.594;8.734;2022-10-16T05:13:50;15.20;99.90
34574;DHT22;20809;49.594;8.734;2022-10-16T05:16:51;15.10;99.90
34574;DHT22;20809;49.594;8.734;2022-10-16T05:19:52;15.10;99.90
34574;DHT22;20809;49.594;8.734;2022-10-16T05:22:53;15.10;99.90
34574;DHT22;20809;49.594;8.734;2022-10-16T05:25:58;15.10;99.90
34574;DHT22;20809;49.594;8.734;2022-10-16T05:28:58;15.10;99.90
34574;DHT22;20809;49.594;8.734;2022-10-16T05:31:59;15.10;99.90
34574;DHT22;20809;49.594;8.734;2022-10-16T05:35:00;15.10;99.90
34574;DHT22;20809;49.594;8.734;2022-10-16T05:38:01;15.10;99.90
34574;DHT22;20809;49.594;8.734;2022-10-16T05:41:03;15.00;99.90
34574;DHT22;20809;49.594;8.734;2022-10-16T05:44:04;14.90;99.90
34574;DHT22;20809;49.594;8.734;2022-10-16T05:47:06;14.90;99.90
34574;DHT22;20809;49.594;8.734;2022-10-16T05:50:07;15.00;99.90
34574;DHT22;20809;49.594;8.734;2022-10-16T05:53:08;15.00;99.90
34574;DHT22;20809;49.594;8.734;2022-10-16T05:56:10;15.10;99.90
34574;DHT22;20809;49.594;8.734;2022-10-16T05:59:12;15.10;99.90
34574;DHT22;20809;49.594;8.734;2022-10-16T06:02:13;15.20;99.90
34574;DHT22;20809;49.594;8.734;2022-10-16T06:05:14;15.10;99.90
34574;DHT22;20809;49.594;8.734;2022-10-16T06:08:15;15.20;99.90
34574;DHT22;20809;49.594;8.734;2022-10-16T06:11:22;15.20;99.90
34574;DHT22;20809;49.594;8.734;2022-10-16T06:14:23;15.10;99.90
34574;DHT22;20809;49.594;8.734;2022-10-16T06:17:23;15.00;99.90
34574;DHT22;20809;49.594;8.734;2022-10-16T06:20:24;15.10;99.90
34574;DHT22;20809;49.594;8.734;2022-10-16T06:23:25;15.20;99.90
34574;DHT22;20809;49.594;8.734;2022-10-16T06:26:28;15.20;99.90
34574;DHT22;20809;49.594;8.734;2022-10-16T06:29:29;15.30;99.90
34574;DHT22;20809;49.594;8.734;2022-10-16T06:32:29;15.30;99.90
34574;DHT22;20809;49.594;8.734;2022-10-16T06:35:30;15.30;99.90
34574;DHT22;20809;49.594;8.734;2022-10-16T06:38:32;15.40;99.90
34574;DHT22;20809;49.594;8.734;2022-10-16T06:41:34;15.40;99.90
34574;DHT22;20809;49.594;8.734;2022-10-16T06:44:34;15.40;99.90
34574;DHT22;20809;49.594;8.734;2022-10-16T06:47:35;15.40;99.90
34574;DHT22;20809;49.594;8.734;2022-10-16T06:50:36;15.40;99.90
34574;DHT22;20809;49.594;8.734;2022-10-16T06:53:40;15.40;99.90
34574;DHT22;20809;49.594;8.734;2022-10-16T06:56:41;15.50;99.90
34574;DHT22;20809;49.594;8.734;2022-10-16T06:59:42;15.50;99.90
34574;DHT22;20809;49.594;8.734;2022-10-16T07:02:42;15.50;99.90
34574;DHT22;20809;49.594;8.734;2022-10-16T07:05:43;15.60;99.90
34574;DHT22;20809;49.594;8.734;2022-10-16T07:08:45;15.70;99.90
34574;DHT22;20809;49.594;8.734;2022-10-16T07:11:46;15.80;99.90
34574;DHT22;20809;49.594;8.734;2022-10-16T07:14:47;15.80;99.90
34574;DHT22;20809;49.594;8.734;2022-10-16T07:17:47;15.80;99.90
34574;DHT22;20809;49.594;8.734;2022-10-16T07:20:48;15.90;99.90
34574;DHT22;20809;49.594;8.734;2022-10-16T07:23:53;15.90;99.90
34574;DHT22;20809;49.594;8.734;2022-10-16T07:26:54;15.90;99.90
34574;DHT22;20809;49.594;8.734;2022-10-16T07:29:55;16.00;99.90
34574;DHT22;20809;49.594;8.734;2022-10-16T07:32:56;16.00;99.90
34574;DHT22;20809;49.594;8.734;2022-10-16T07:35:56;16.20;99.90
34574;DHT22;20809;49.594;8.734;2022-10-16T07:38:57;16.30;99.90
34574;DHT22;20809;49.594;8.734;2022-10-16T07:41:58;16.40;99.90
34574;DHT22;20809;49.594;8.734;2022-10-16T07:44:58;16.50;99.90
34574;DHT22;20809;49.594;8.734;2022-10-16T07:47:59;16.60;99.90
34574;DHT22;20809;49.594;8.734;2022-10-16T07:51:05;16.80;99.90
34574;DHT22;20809;49.594;8.734;2022-10-16T07:54:05;16.90;99.90
34574;DHT22;20809;49.594;8.734;2022-10-16T07:57:06;17.00;99.90
34574;DHT22;20809;49.594;8.734;2022-10-16T08:00:07;16.90;99.90
34574;DHT22;20809;49.594;8.734;2022-10-16T08:03:13;16.90;99.90
34574;DHT22;20809;49.594;8.734;2022-10-16T08:06:14;16.80;99.90
34574;DHT22;20809;49.594;8.734;2022-10-16T08:09:15;16.70;99.90
34574;DHT22;20809;49.594;8.734;2022-10-16T08:12:16;16.80;99.90
34574;DHT22;20809;49.594;8.734;2022-10-16T08:15:17;16.90;99.90
34574;DHT22;20809;49.594;8.734;2022-10-16T08:18:18;17.20;99.90
34574;DHT22;20809;49.594;8.734;2022-10-16T08:21:20;17.30;99.90
34574;DHT22;20809;49.594;8.734;2022-10-16T08:24:21;17.40;99.90
34574;DHT22;20809;49.594;8.734;2022-10-16T08:27:22;17.20;99.90
34574;DHT22;20809;49.594;8.734;2022-10-16T08:30:24;17.00;99.90
34574;DHT22;20809;49.594;8.734;2022-10-16T08:33:24;16.90;99.90
34574;DHT22;20809;49.594;8.734;2022-10-16T08:36:25;16.70;99.90
34574;DHT22;20809;49.594;8.734;2022-10-16T08:39:26;16.70;99.90
34574;DHT22;20809;49.594;8.734;2022-10-16T08:49:21;16.50;99.90
34574;DHT22;20809;49.594;8.734;2022-10-16T08:52:22;16.50;99.90
34574;DHT22;20809;49.594;8.734;2022-10-16T08:55:46;16.50;99.90
34574;DHT22;20809;49.594;8.734;2022-10-16T08:58:49;16.50;99.90
34574;DHT22;20809;49.594;8.734;2022-10-16T09:01:50;16.50;99.90
34574;DHT22;20809;49.594;8.734;2022-10-16T09:08:29;16.20;99.90
34574;DHT22;20809;49.594;8.734;2022-10-16T09:11:48;16.10;99.90
34574;DHT22;20809;49.594;8.734;2022-10-16T09:18:54;15.90;99.90
34574;DHT22;20809;49.594;8.734;2022-10-16T09:24:49;15.80;99.90
34574;DHT22;20809;49.594;8.734;2022-10-16T09:27:55;15.90;99.90
34574;DHT22;20809;49.594;8.734;2022-10-16T09:30:56;16.10;99.90
34574;DHT22;20809;49.594;8.734;2022-10-16T09:34:02;16.30;99.90
34574;DHT22;20809;49.594;8.734;2022-10-16T09:37:11;16.40;99.90
34574;DHT22;20809;49.594;8.734;2022-10-16T09:40:35;16.40;99.90
34574;DHT22;20809;49.594;8.734;2022-10-16T09:43:59;16.70;99.90
34574;DHT22;20809;49.594;8.734;2022-10-16T09:47:05;17.00;99.90
34574;DHT22;20809;49.594;8.734;2022-10-16T09:50:22;17.50;99.90
34574;DHT22;20809;49.594;8.734;2022-10-16T09:53:26;17.90;99.90
34574;DHT22;20809;49.594;8.734;2022-10-16T09:56:32;18.40;99.90
34574;DHT22;20809;49.594;8.734;2022-10-16T09:59:33;19.00;99.90
34574;DHT22;20809;49.594;8.734;2022-10-16T10:02:36;19.40;99.90
34574;DHT22;20809;49.594;8.734;2022-10-16T10:05:39;19.60;99.90
34574;DHT22;20809;49.594;8.734;2022-10-16T10:08:40;19.80;99.90
34574;DHT22;20809;49.594;8.734;2022-10-16T10:18:24;19.70;99.90
34574;DHT22;20809;49.594;8.734;2022-10-16T10:21:26;19.60;99.90
34574;DHT22;20809;49.594;8.734;2022-10-16T10:24:31;19.50;99.90
34574;DHT22;20809;49.594;8.734;2022-10-16T10:31:38;19.20;99.90
34574;DHT22;20809;49.594;8.734;2022-10-16T10:38:13;19.30;99.90
34574;DHT22;20809;49.594;8.734;2022-10-16T10:45:26;20.30;99.90
34574;DHT22;20809;49.594;8.734;2022-10-16T10:48:58;20.80;99.90
34574;DHT22;20809;49.594;8.734;2022-10-16T10:55:45;20.70;99.90
34574;DHT22;20809;49.594;8.734;2022-10-16T10:59:28;20.70;99.90
34574;DHT22;20809;49.594;8.734;2022-10-16T11:02:48;20.70;99.90
34574;DHT22;20809;49.594;8.734;2022-10-16T11:09:35;20.70;99.90
34574;DHT22;20809;49.594;8.734;2022-10-16T11:12:52;20.70;99.90
34574;DHT22;20809;49.594;8.734;2022-10-16T11:15:59;20.80;99.90
34574;DHT22;20809;49.594;8.734;2022-10-16T11:22:39;20.70;99.90
34574;DHT22;20809;49.594;8.734;2022-10-16T11:25:43;20.80;99.90
34574;DHT22;20809;49.594;8.734;2022-10-16T11:28:54;20.90;99.90
34574;DHT22;20809;49.594;8.734;2022-10-16T11:32:03;21.00;99.90
34574;DHT22;20809;49.594;8.734;2022-10-16T11:35:17;21.00;99.90
34574;DHT22;20809;49.594;8.734;2022-10-16T11:45:28;21.20;99.90
34574;DHT22;20809;49.594;8.734;2022-10-16T11:48:41;21.30;99.90
34574;DHT22;20809;49.594;8.734;2022-10-16T11:52:07;21.40;99.90
34574;DHT22;20809;49.594;8.734;2022-10-16T11:58:54;21.60;99.90
34574;DHT22;20809;49.594;8.734;2022-10-16T12:08:35;22.10;99.90
34574;DHT22;20809;49.594;8.734;2022-10-16T12:11:38;22.20;99.90
34574;DHT22;20809;49.594;8.734;2022-10-16T12:14:39;22.10;99.90
34574;DHT22;20809;49.594;8.734;2022-10-16T12:17:40;22.20;99.90
34574;DHT22;20809;49.594;8.734;2022-10-16T12:20:41;22.30;99.90
34574;DHT22;20809;49.594;8.734;2022-10-16T12:23:50;21.90;99.90
34574;DHT22;20809;49.594;8.734;2022-10-16T12:26:52;21.80;99.90
34574;DHT22;20809;49.594;8.734;2022-10-16T12:29:59;21.80;99.90
34574;DHT22;20809;49.594;8.734;2022-10-16T12:33:27;21.60;99.90
34574;DHT22;20809;49.594;8.734;2022-10-16T12:36:33;21.60;99.90
34574;DHT22;20809;49.594;8.734;2022-10-16T12:39:35;21.80;99.90
34574;DHT22;20809;49.594;8.734;2022-10-16T12:42:37;21.90;99.90
34574;DHT22;20809;49.594;8.734;2022-10-16T12:45:38;21.90;99.90
34574;DHT22;20809;49.594;8.734;2022-10-16T12:48:41;21.90;99.90
34574;DHT22;20809;49.594;8.734;2022-10-16T12:51:42;22.00;99.90
34574;DHT22;20809;49.594;8.734;2022-10-16T12:54:43;22.10;99.90
34574;DHT22;20809;49.594;8.734;2022-10-16T12:57:53;22.20;99.90
34574;DHT22;20809;49.594;8.734;2022-10-16T13:01:00;22.20;99.90
34574;DHT22;20809;49.594;8.734;2022-10-16T13:10:48;22.70;99.90
34574;DHT22;20809;49.594;8.734;2022-10-16T13:27:38;23.20;99.90
34574;DHT22;20809;49.594;8.734;2022-10-16T13:30:43;22.90;99.90
34574;DHT22;20809;49.594;8.734;2022-10-16T13:33:54;22.60;99.90
34574;DHT22;20809;49.594;8.734;2022-10-16T13:36:55;22.30;99.90
34574;DHT22;20809;49.594;8.734;2022-10-16T13:40:21;22.10;99.90
34574;DHT22;20809;49.594;8.734;2022-10-16T13:43:43;21.70;99.90
34574;DHT22;20809;49.594;8.734;2022-10-16T13:46:44;21.40;99.90
34574;DHT22;20809;49.594;8.734;2022-10-16T13:49:45;21.30;99.90
34574;DHT22;20809;49.594;8.734;2022-10-16T13:52:46;21.10;99.90
34574;DHT22;20809;49.594;8.734;2022-10-16T13:55:47;21.10;99.90
34574;DHT22;20809;49.594;8.734;2022-10-16T14:02:05;21.10;99.90
34574;DHT22;20809;49.594;8.734;2022-10-16T14:05:10;21.10;99.90
34574;DHT22;20809;49.594;8.734;2022-10-16T14:08:11;21.20;99.90
34574;DHT22;20809;49.594;8.734;2022-10-16T14:11:12;21.30;99.90
34574;DHT22;20809;49.594;8.734;2022-10-16T14:14:14;21.30;99.90
34574;DHT22;20809;49.594;8.734;2022-10-16T14:17:19;21.30;99.90
34574;DHT22;20809;49.594;8.734;2022-10-16T14:20:24;21.10;99.90
34574;DHT22;20809;49.594;8.734;2022-10-16T14:23:32;20.90;99.90
34574;DHT22;20809;49.594;8.734;2022-10-16T14:26:44;20.70;99.90
34574;DHT22;20809;49.594;8.734;2022-10-16T14:29:45;20.40;99.90
34574;DHT22;20809;49.594;8.734;2022-10-16T14:33:00;20.10;99.90
34574;DHT22;20809;49.594;8.734;2022-10-16T14:36:15;20.10;99.90
34574;DHT22;20809;49.594;8.734;2022-10-16T14:39:22;20.00;99.90
34574;DHT22;20809;49.594;8.734;2022-10-16T14:42:24;19.80;99.90
34574;DHT22;20809;49.594;8.734;2022-10-16T14:45:29;19.90;99.90
34574;DHT22;20809;49.594;8.734;2022-10-16T14:48:30;19.90;99.90
34574;DHT22;20809;49.594;8.734;2022-10-16T14:51:31;20.00;99.90
34574;DHT22;20809;49.594;8.734;2022-10-16T14:54:32;20.10;99.90
34574;DHT22;20809;49.594;8.734;2022-10-16T14:57:34;20.10;99.90
34574;DHT22;20809;49.594;8.734;2022-10-16T15:00:36;20.00;99.90
34574;DHT22;20809;49.594;8.734;2022-10-16T15:03:37;20.00;99.90
34574;DHT22;20809;49.594;8.734;2022-10-16T15:06:38;19.90;99.90
34574;DHT22;20809;49.594;8.734;2022-10-16T15:09:39;19.90;99.90
34574;DHT22;20809;49.594;8.734;2022-10-16T15:12:40;19.90;99.90
34574;DHT22;20809;49.594;8.734;2022-10-16T15:15:46;20.00;99.90
34574;DHT22;20809;49.594;8.734;2022-10-16T15:18:46;20.00;99.90
34574;DHT22;20809;49.594;8.734;2022-10-16T15:21:47;20.00;99.90
34574;DHT22;20809;49.594;8.734;2022-10-16T15:24:49;20.10;99.90
34574;DHT22;20809;49.594;8.734;2022-10-16T15:27:50;20.30;99.90
34574;DHT22;20809;49.594;8.734;2022-10-16T15:30:52;20.30;99.90
34574;DHT22;20809;49.594;8.734;2022-10-16T15:33:54;20.40;99.90
34574;DHT22;20809;49.594;8.734;2022-10-16T15:36:58;20.50;99.90
34574;DHT22;20809;49.594;8.734;2022-10-16T15:40:02;20.40;99.90
34574;DHT22;20809;49.594;8.734;2022-10-16T15:43:03;20.20;99.90
34574;DHT22;20809;49.594;8.734;2022-10-16T15:46:06;20.00;99.90
34574;DHT22;20809;49.594;8.734;2022-10-16T15:49:09;19.80;99.90
34574;DHT22;20809;49.594;8.734;2022-10-16T15:52:10;19.70;99.90
34574;DHT22;20809;49.594;8.734;2022-10-16T15:55:13;19.60;99.90
34574;DHT22;20809;49.594;8.734;2022-10-16T15:58:14;19.50;99.90
34574;DHT22;20809;49.594;8.734;2022-10-16T16:01:15;19.50;99.90
34574;DHT22;20809;49.594;8.734;2022-10-16T16:04:16;19.40;99.90
34574;DHT22;20809;49.594;8.734;2022-10-16T16:07:18;19.40;99.90
34574;DHT22;20809;49.594;8.734;2022-10-16T16:10:19;19.20;99.90
34574;DHT22;20809;49.594;8.734;2022-10-16T16:13:22;19.00;99.90
34574;DHT22;20809;49.594;8.734;2022-10-16T16:16:24;18.90;99.90
34574;DHT22;20809;49.594;8.734;2022-10-16T16:19:25;18.80;99.90
34574;DHT22;20809;49.594;8.734;2022-10-16T16:22:26;18.70;99.90
34574;DHT22;20809;49.594;8.734;2022-10-16T16:25:27;18.60;99.90
34574;DHT22;20809;49.594;8.734;2022-10-16T16:28:28;18.40;99.90
34574;DHT22;20809;49.594;8.734;2022-10-16T16:31:30;18.30;99.90
34574;DHT22;20809;49.594;8.734;2022-10-16T16:34:31;18.20;99.90
34574;DHT22;20809;49.594;8.734;2022-10-16T16:37:32;18.00;99.90
34574;DHT22;20809;49.594;8.734;2022-10-16T16:40:34;17.80;99.90
34574;DHT22;20809;49.594;8.734;2022-10-16T16:43:35;17.60;99.90
34574;DHT22;20809;49.594;8.734;2022-10-16T16:46:36;17.40;99.90
34574;DHT22;20809;49.594;8.734;2022-10-16T16:49:37;17.30;99.90
34574;DHT22;20809;49.594;8.734;2022-10-16T16:52:38;17.20;99.90
34574;DHT22;20809;49.594;8.734;2022-10-16T16:55:38;17.20;99.90
34574;DHT22;20809;49.594;8.734;2022-10-16T16:58:40;17.10;99.90
34574;DHT22;20809;49.594;8.734;2022-10-16T17:01:40;17.00;99.90
34574;DHT22;20809;49.594;8.734;2022-10-16T17:04:41;17.00;99.90
34574;DHT22;20809;49.594;8.734;2022-10-16T17:07:42;17.00;99.90
34574;DHT22;20809;49.594;8.734;2022-10-16T17:10:44;16.90;99.90
34574;DHT22;20809;49.594;8.734;2022-10-16T17:13:44;16.90;99.90
34574;DHT22;20809;49.594;8.734;2022-10-16T17:16:46;16.80;99.90
34574;DHT22;20809;49.594;8.734;2022-10-16T17:19:50;16.80;99.90
34574;DHT22;20809;49.594;8.734;2022-10-16T17:22:50;16.70;99.90
34574;DHT22;20809;49.594;8.734;2022-10-16T17:25:51;16.70;99.90
34574;DHT22;20809;49.594;8.734;2022-10-16T17:28:55;16.60;99.90
34574;DHT22;20809;49.594;8.734;2022-10-16T17:31:56;16.40;99.90
34574;DHT22;20809;49.594;8.734;2022-10-16T17:34:58;16.20;99.90
34574;DHT22;20809;49.594;8.734;2022-10-16T17:37:59;16.10;99.90
34574;DHT22;20809;49.594;8.734;2022-10-16T17:41:11;16.10;99.90
34574;DHT22;20809;49.594;8.734;2022-10-16T17:44:12;16.00;99.90
34574;DHT22;20809;49.594;8.734;2022-10-16T17:47:19;16.00;99.90
34574;DHT22;20809;49.594;8.734;2022-10-16T17:50:21;15.90;99.90
34574;DHT22;20809;49.594;8.734;2022-10-16T17:53:22;15.90;99.90
34574;DHT22;20809;49.594;8.734;2022-10-16T17:56:25;15.80;99.90
34574;DHT22;20809;49.594;8.734;2022-10-16T17:59:26;15.70;99.90
34574;DHT22;20809;49.594;8.734;2022-10-16T18:02:28;15.70;99.90
34574;DHT22;20809;49.594;8.734;2022-10-16T18:05:29;15.70;99.90
34574;DHT22;20809;49.594;8.734;2022-10-16T18:08:29;15.60;99.90
34574;DHT22;20809;49.594;8.734;2022-10-16T18:11:30;15.60;99.90
34574;DHT22;20809;49.594;8.734;2022-10-16T18:14:31;15.60;99.90
34574;DHT22;20809;49.594;8.734;2022-10-16T18:17:34;15.50;99.90
34574;DHT22;20809;49.594;8.734;2022-10-16T18:20:37;15.50;99.90
34574;DHT22;20809;49.594;8.734;2022-10-16T18:23:39;15.40;99.90
34574;DHT22;20809;49.594;8.734;2022-10-16T18:26:40;15.40;99.90
34574;DHT22;20809;49.594;8.734;2022-10-16T18:29:41;15.30;99.90
34574;DHT22;20809;49.594;8.734;2022-10-16T18:32:42;15.20;99.90
34574;DHT22;20809;49.594;8.734;2022-10-16T18:35:42;15.30;99.90
34574;DHT22;20809;49.594;8.734;2022-10-16T18:38:43;15.20;99.90
34574;DHT22;20809;49.594;8.734;2022-10-16T18:41:44;15.20;99.90
34574;DHT22;20809;49.594;8.734;2022-10-16T18:44:45;15.20;99.90
34574;DHT22;20809;49.594;8.734;2022-10-16T18:47:46;15.20;99.90
34574;DHT22;20809;49.594;8.734;2022-10-16T18:50:48;15.10;99.90
34574;DHT22;20809;49.594;8.734;2022-10-16T18:53:51;15.10;99.90
34574;DHT22;20809;49.594;8.734;2022-10-16T18:56:53;15.00;99.90
34574;DHT22;20809;49.594;8.734;2022-10-16T18:59:53;14.90;99.90
34574;DHT22;20809;49.594;8.734;2022-10-16T19:02:55;14.90;99.90
34574;DHT22;20809;49.594;8.734;2022-10-16T19:06:02;14.90;99.90
34574;DHT22;20809;49.594;8.734;2022-10-16T19:09:23;14.80;99.90
34574;DHT22;20809;49.594;8.734;2022-10-16T19:12:24;14.80;99.90
34574;DHT22;20809;49.594;8.734;2022-10-16T19:15:25;14.70;99.90
34574;DHT22;20809;49.594;8.734;2022-10-16T19:18:27;14.80;99.90
34574;DHT22;20809;49.594;8.734;2022-10-16T19:21:29;14.80;99.90
34574;DHT22;20809;49.594;8.734;2022-10-16T19:24:30;14.80;99.90
34574;DHT22;20809;49.594;8.734;2022-10-16T19:27:31;14.70;99.90
34574;DHT22;20809;49.594;8.734;2022-10-16T19:30:38;14.70;99.90
34574;DHT22;20809;49.594;8.734;2022-10-16T19:33:40;14.70;99.90
34574;DHT22;20809;49.594;8.734;2022-10-16T19:36:41;14.60;99.90
34574;DHT22;20809;49.594;8.734;2022-10-16T19:39:42;14.60;99.90
34574;DHT22;20809;49.594;8.734;2022-10-16T19:42:44;14.60;99.90
34574;DHT22;20809;49.594;8.734;2022-10-16T19:45:46;14.50;99.90
34574;DHT22;20809;49.594;8.734;2022-10-16T19:48:47;14.40;99.90
34574;DHT22;20809;49.594;8.734;2022-10-16T19:51:49;14.40;99.90
34574;DHT22;20809;49.594;8.734;2022-10-16T19:54:54;14.50;99.90
34574;DHT22;20809;49.594;8.734;2022-10-16T19:57:57;14.40;99.90
34574;DHT22;20809;49.594;8.734;2022-10-16T20:00:57;14.40;99.90
34574;DHT22;20809;49.594;8.734;2022-10-16T20:03:58;14.40;99.90
34574;DHT22;20809;49.594;8.734;2022-10-16T20:06:59;14.40;99.90
34574;DHT22;20809;49.594;8.734;2022-10-16T20:10:00;14.50;99.90
34574;DHT22;20809;49.594;8.734;2022-10-16T20:13:01;14.50;99.90
34574;DHT22;20809;49.594;8.734;2022-10-16T20:16:03;14.40;99.90
34574;DHT22;20809;49.594;8.734;2022-10-16T20:19:04;14.30;99.90
34574;DHT22;20809;49.594;8.734;2022-10-16T20:22:05;14.30;99.90
34574;DHT22;20809;49.594;8.734;2022-10-16T20:25:06;14.20;99.90
34574;DHT22;20809;49.594;8.734;2022-10-16T20:28:08;14.10;99.90
34574;DHT22;20809;49.594;8.734;2022-10-16T20:31:14;14.20;99.90
34574;DHT22;20809;49.594;8.734;2022-10-16T20:34:17;14.10;99.90
34574;DHT22;20809;49.594;8.734;2022-10-16T20:37:17;14.20;99.90
34574;DHT22;20809;49.594;8.734;2022-10-16T20:40:18;14.20;99.90
34574;DHT22;20809;49.594;8.734;2022-10-16T20:43:19;14.20;99.90
34574;DHT22;20809;49.594;8.734;2022-10-16T20:46:22;14.20;99.90
34574;DHT22;20809;49.594;8.734;2022-10-16T20:49:23;14.20;99.90
34574;DHT22;20809;49.594;8.734;2022-10-16T20:52:24;14.20;99.90
34574;DHT22;20809;49.594;8.734;2022-10-16T20:55:26;14.20;99.90
34574;DHT22;20809;49.594;8.734;2022-10-16T20:58:26;14.10;99.90
34574;DHT22;20809;49.594;8.734;2022-10-16T21:01:27;14.10;99.90